sensor_id;sensor_type;location;lat;lon;timestamp;temperature;humidity
65419;DHT22;52027;50.658;14.004;2022-07-04T00:00:05;28.98;40.18
65419;DHT22;52027;50.658;14.004;2022-07-04T00:02:31;28.95;40.21
65419;DHT22;52027;50.658;14.004;2022-07-04T00:04:56;28.98;40.31
65419;DHT22;52027;50.658;14.004;2022-07-04T00:07:22;28.96;40.33
65419;DHT22;52027;50.658;14.004;2022-07-04T00:09:47;28.96;40.32
65419;DHT22;52027;50.658;14.004;2022-07-04T00:12:13;28.98;40.37
65419;DHT22;52027;50.658;14.004;2022-07-04T00:14:39;28.93;40.40
65419;DHT22;52027;50.658;14.004;2022-07-04T00:17:04;28.95;40.39
65419;DHT22;52027;50.658;14.004;2022-07-04T00:19:29;28.93;40.41
65419;DHT22;52027;50.658;14.004;2022-07-04T00:21:55;28.92;40.41
65419;DHT22;52027;50.658;14.004;2022-07-04T00:24:20;28.95;40.38
65419;DHT22;52027;50.658;14.004;2022-07-04T00:26:46;28.95;40.39
65419;DHT22;52027;50.658;14.004;2022-07-04T00:29:11;28.92;40.38
65419;DHT22;52027;50.658;14.004;2022-07-04T00:31:36;28.92;40.41
65419;DHT22;52027;50.658;14.004;2022-07-04T00:34:02;28.92;40.38
65419;DHT22;52027;50.658;14.004;2022-07-04T00:36:27;28.91;40.36
65419;DHT22;52027;50.658;14.004;2022-07-04T00:38:52;28.93;40.39
65419;DHT22;52027;50.658;14.004;2022-07-04T00:41:18;28.92;40.33
65419;DHT22;52027;50.658;14.004;2022-07-04T00:43:43;28.92;40.38
65419;DHT22;52027;50.658;14.004;2022-07-04T00:46:09;28.91;40.41
65419;DHT22;52027;50.658;14.004;2022-07-04T00:48:34;28.91;40.41
65419;DHT22;52027;50.658;14.004;2022-07-04T00:51:00;28.89;40.42
65419;DHT22;52027;50.658;14.004;2022-07-04T00:53:25;28.89;40.45
65419;DHT22;52027;50.658;14.004;2022-07-04T00:55:51;28.89;40.42
65419;DHT22;52027;50.658;14.004;2022-07-04T00:58:23;28.91;40.49
65419;DHT22;52027;50.658;14.004;2022-07-04T01:00:49;28.91;40.46
65419;DHT22;52027;50.658;14.004;2022-07-04T01:03:14;28.88;40.45
65419;DHT22;52027;50.658;14.004;2022-07-04T01:05:40;28.88;40.49
65419;DHT22;52027;50.658;14.004;2022-07-04T01:08:07;28.86;40.51
65419;DHT22;52027;50.658;14.004;2022-07-04T01:10:32;28.86;40.55
65419;DHT22;52027;50.658;14.004;2022-07-04T01:12:58;28.86;40.52
65419;DHT22;52027;50.658;14.004;2022-07-04T01:15:23;28.86;40.52
65419;DHT22;52027;50.658;14.004;2022-07-04T01:17:49;28.85;40.52
65419;DHT22;52027;50.658;14.004;2022-07-04T01:20:15;28.85;40.58
65419;DHT22;52027;50.658;14.004;2022-07-04T01:22:41;28.82;40.57
65419;DHT22;52027;50.658;14.004;2022-07-04T01:25:10;28.83;40.64
65419;DHT22;52027;50.658;14.004;2022-07-04T01:27:35;28.85;40.65
65419;DHT22;52027;50.658;14.004;2022-07-04T01:30:01;28.80;40.57
65419;DHT22;52027;50.658;14.004;2022-07-04T01:32:26;28.80;40.65
65419;DHT22;52027;50.658;14.004;2022-07-04T01:34:52;28.80;40.66
65419;DHT22;52027;50.658;14.004;2022-07-04T01:37:18;28.80;40.64
65419;DHT22;52027;50.658;14.004;2022-07-04T01:39:43;28.82;40.67
65419;DHT22;52027;50.658;14.004;2022-07-04T01:42:09;28.79;40.71
65419;DHT22;52027;50.658;14.004;2022-07-04T01:44:35;28.79;40.67
65419;DHT22;52027;50.658;14.004;2022-07-04T01:47:00;28.79;40.72
65419;DHT22;52027;50.658;14.004;2022-07-04T01:49:26;28.78;40.72
65419;DHT22;52027;50.658;14.004;2022-07-04T01:51:52;28.78;40.77
65419;DHT22;52027;50.658;14.004;2022-07-04T01:54:18;28.78;40.74
65419;DHT22;52027;50.658;14.004;2022-07-04T01:56:44;28.79;40.78
65419;DHT22;52027;50.658;14.004;2022-07-04T01:59:09;28.78;40.72
65419;DHT22;52027;50.658;14.004;2022-07-04T02:01:35;28.76;40.76
65419;DHT22;52027;50.658;14.004;2022-07-04T02:04:04;28.76;40.79
65419;DHT22;52027;50.658;14.004;2022-07-04T02:06:30;28.76;40.79
65419;DHT22;52027;50.658;14.004;2022-07-04T02:08:56;28.75;40.85
65419;DHT22;52027;50.658;14.004;2022-07-04T02:11:40;28.75;40.85
65419;DHT22;52027;50.658;14.004;2022-07-04T02:14:24;28.74;40.87
65419;DHT22;52027;50.658;14.004;2022-07-04T02:16:50;28.72;40.89
65419;DHT22;52027;50.658;14.004;2022-07-04T02:19:15;28.71;40.88
65419;DHT22;52027;50.658;14.004;2022-07-04T02:21:41;28.71;40.92
65419;DHT22;52027;50.658;14.004;2022-07-04T02:24:06;28.71;40.91
65419;DHT22;52027;50.658;14.004;2022-07-04T02:26:32;28.72;40.92
65419;DHT22;52027;50.658;14.004;2022-07-04T02:28:57;28.71;40.95
65419;DHT22;52027;50.658;14.004;2022-07-04T02:31:22;28.72;40.98
65419;DHT22;52027;50.658;14.004;2022-07-04T02:33:48;28.71;41.05
65419;DHT22;52027;50.658;14.004;2022-07-04T02:36:14;28.68;41.03
65419;DHT22;52027;50.658;14.004;2022-07-04T02:38:39;28.72;41.01
65419;DHT22;52027;50.658;14.004;2022-07-04T02:41:04;28.69;41.04
65419;DHT22;52027;50.658;14.004;2022-07-04T02:43:30;28.68;41.08
65419;DHT22;52027;50.658;14.004;2022-07-04T02:45:55;28.69;41.05
65419;DHT22;52027;50.658;14.004;2022-07-04T02:48:21;28.69;41.10
65419;DHT22;52027;50.658;14.004;2022-07-04T02:50:46;28.68;41.11
65419;DHT22;52027;50.658;14.004;2022-07-04T02:53:11;28.66;41.10
65419;DHT22;52027;50.658;14.004;2022-07-04T02:55:37;28.68;41.07
65419;DHT22;52027;50.658;14.004;2022-07-04T02:58:02;28.64;41.12
65419;DHT22;52027;50.658;14.004;2022-07-04T03:00:28;28.65;41.12
65419;DHT22;52027;50.658;14.004;2022-07-04T03:02:54;28.65;41.11
65419;DHT22;52027;50.658;14.004;2022-07-04T03:05:19;28.65;41.15
65419;DHT22;52027;50.658;14.004;2022-07-04T03:07:45;28.69;41.14
65419;DHT22;52027;50.658;14.004;2022-07-04T03:10:10;28.65;41.17
65419;DHT22;52027;50.658;14.004;2022-07-04T03:12:36;28.65;41.18
65419;DHT22;52027;50.658;14.004;2022-07-04T03:15:01;28.66;41.14
65419;DHT22;52027;50.658;14.004;2022-07-04T03:17:27;28.62;41.18
65419;DHT22;52027;50.658;14.004;2022-07-04T03:19:53;28.62;41.15
65419;DHT22;52027;50.658;14.004;2022-07-04T03:22:18;28.61;41.18
65419;DHT22;52027;50.658;14.004;2022-07-04T03:24:44;28.61;41.21
65419;DHT22;52027;50.658;14.004;2022-07-04T03:27:09;28.62;41.21
65419;DHT22;52027;50.658;14.004;2022-07-04T03:29:34;28.62;41.18
65419;DHT22;52027;50.658;14.004;2022-07-04T03:32:00;28.59;41.16
65419;DHT22;52027;50.658;14.004;2022-07-04T03:34:26;28.58;41.22
65419;DHT22;52027;50.658;14.004;2022-07-04T03:36:51;28.61;41.21
65419;DHT22;52027;50.658;14.004;2022-07-04T03:39:17;28.64;41.21
65419;DHT22;52027;50.658;14.004;2022-07-04T03:41:44;28.62;41.36
65419;DHT22;52027;50.658;14.004;2022-07-04T03:44:09;28.61;41.40
65419;DHT22;52027;50.658;14.004;2022-07-04T03:46:34;28.66;41.24
65419;DHT22;52027;50.658;14.004;2022-07-04T03:49:00;28.64;41.27
65419;DHT22;52027;50.658;14.004;2022-07-04T03:51:25;28.68;41.30
65419;DHT22;52027;50.658;14.004;2022-07-04T03:53:50;28.72;41.32
65419;DHT22;52027;50.658;14.004;2022-07-04T03:56:16;28.71;41.60
65419;DHT22;52027;50.658;14.004;2022-07-04T03:58:41;28.68;41.49
65419;DHT22;52027;50.658;14.004;2022-07-04T04:01:17;28.71;41.44
65419;DHT22;52027;50.658;14.004;2022-07-04T04:03:42;28.72;41.40
65419;DHT22;52027;50.658;14.004;2022-07-04T04:06:27;28.74;41.43
65419;DHT22;52027;50.658;14.004;2022-07-04T04:08:52;28.72;41.38
65419;DHT22;52027;50.658;14.004;2022-07-04T04:11:17;28.71;41.31
65419;DHT22;52027;50.658;14.004;2022-07-04T04:13:43;28.71;41.35
65419;DHT22;52027;50.658;14.004;2022-07-04T04:16:08;28.68;41.29
65419;DHT22;52027;50.658;14.004;2022-07-04T04:18:34;28.71;41.31
65419;DHT22;52027;50.658;14.004;2022-07-04T04:20:59;28.72;41.29
65419;DHT22;52027;50.658;14.004;2022-07-04T04:23:24;28.71;41.29
65419;DHT22;52027;50.658;14.004;2022-07-04T04:25:50;28.69;41.34
65419;DHT22;52027;50.658;14.004;2022-07-04T04:28:15;28.71;41.28
65419;DHT22;52027;50.658;14.004;2022-07-04T04:30:41;28.66;41.23
65419;DHT22;52027;50.658;14.004;2022-07-04T04:33:06;28.69;41.32
65419;DHT22;52027;50.658;14.004;2022-07-04T04:35:31;28.68;41.29
65419;DHT22;52027;50.658;14.004;2022-07-04T04:37:56;28.66;41.30
65419;DHT22;52027;50.658;14.004;2022-07-04T04:40:22;28.66;41.33
65419;DHT22;52027;50.658;14.004;2022-07-04T04:42:47;28.64;41.33
65419;DHT22;52027;50.658;14.004;2022-07-04T04:45:12;28.64;41.31
65419;DHT22;52027;50.658;14.004;2022-07-04T04:47:38;28.62;41.50
65419;DHT22;52027;50.658;14.004;2022-07-04T04:50:03;28.59;41.56
65419;DHT22;52027;50.658;14.004;2022-07-04T04:52:29;28.52;41.74
65419;DHT22;52027;50.658;14.004;2022-07-04T04:54:56;28.37;41.94
65419;DHT22;52027;50.658;14.004;2022-07-04T04:57:21;28.28;42.06
65419;DHT22;52027;50.658;14.004;2022-07-04T04:59:46;28.20;42.26
65419;DHT22;52027;50.658;14.004;2022-07-04T05:02:12;28.21;42.30
65419;DHT22;52027;50.658;14.004;2022-07-04T05:04:37;28.11;42.57
65419;DHT22;52027;50.658;14.004;2022-07-04T05:07:03;28.01;42.83
65419;DHT22;52027;50.658;14.004;2022-07-04T05:09:28;27.93;43.01
65419;DHT22;52027;50.658;14.004;2022-07-04T05:11:53;27.83;43.36
65419;DHT22;52027;50.658;14.004;2022-07-04T05:14:19;27.70;43.47
65419;DHT22;52027;50.658;14.004;2022-07-04T05:16:44;27.61;43.66
65419;DHT22;52027;50.658;14.004;2022-07-04T05:19:09;27.52;43.90
65419;DHT22;52027;50.658;14.004;2022-07-04T05:21:36;27.51;43.97
65419;DHT22;52027;50.658;14.004;2022-07-04T05:24:01;27.37;43.90
65419;DHT22;52027;50.658;14.004;2022-07-04T05:26:27;27.34;44.17
65419;DHT22;52027;50.658;14.004;2022-07-04T05:28:52;27.33;44.22
65419;DHT22;52027;50.658;14.004;2022-07-04T05:31:18;27.34;44.44
65419;DHT22;52027;50.658;14.004;2022-07-04T05:33:43;27.31;44.53
65419;DHT22;52027;50.658;14.004;2022-07-04T05:36:08;27.30;44.67
65419;DHT22;52027;50.658;14.004;2022-07-04T05:38:34;27.30;44.50
65419;DHT22;52027;50.658;14.004;2022-07-04T05:41:01;27.35;44.64
65419;DHT22;52027;50.658;14.004;2022-07-04T05:43:26;27.34;44.64
65419;DHT22;52027;50.658;14.004;2022-07-04T05:45:52;27.37;44.51
65419;DHT22;52027;50.658;14.004;2022-07-04T05:48:17;27.33;44.50
65419;DHT22;52027;50.658;14.004;2022-07-04T05:50:43;27.34;44.49
65419;DHT22;52027;50.658;14.004;2022-07-04T05:53:08;27.37;44.44
65419;DHT22;52027;50.658;14.004;2022-07-04T05:55:33;27.34;44.31
65419;DHT22;52027;50.658;14.004;2022-07-04T05:57:59;27.38;44.02
65419;DHT22;52027;50.658;14.004;2022-07-04T06:00:25;27.34;43.65
65419;DHT22;52027;50.658;14.004;2022-07-04T06:02:50;27.28;43.56
65419;DHT22;52027;50.658;14.004;2022-07-04T06:05:16;27.27;43.55
65419;DHT22;52027;50.658;14.004;2022-07-04T06:07:41;27.25;43.47
65419;DHT22;52027;50.658;14.004;2022-07-04T06:10:08;27.25;43.34
65419;DHT22;52027;50.658;14.004;2022-07-04T06:12:33;27.27;43.34
65419;DHT22;52027;50.658;14.004;2022-07-04T06:14:59;27.25;43.46
65419;DHT22;52027;50.658;14.004;2022-07-04T06:17:24;27.27;43.70
65419;DHT22;52027;50.658;14.004;2022-07-04T06:19:50;27.24;43.57
65419;DHT22;52027;50.658;14.004;2022-07-04T06:22:15;27.27;43.53
65419;DHT22;52027;50.658;14.004;2022-07-04T06:24:41;27.25;43.96
65419;DHT22;52027;50.658;14.004;2022-07-04T06:27:07;27.28;44.53
65419;DHT22;52027;50.658;14.004;2022-07-04T06:29:32;27.27;44.98
65419;DHT22;52027;50.658;14.004;2022-07-04T06:32:01;27.28;45.21
65419;DHT22;52027;50.658;14.004;2022-07-04T06:34:26;27.30;44.73
65419;DHT22;52027;50.658;14.004;2022-07-04T06:37:10;27.34;44.21
65419;DHT22;52027;50.658;14.004;2022-07-04T06:39:35;27.37;43.48
65419;DHT22;52027;50.658;14.004;2022-07-04T06:42:01;27.37;42.97
65419;DHT22;52027;50.658;14.004;2022-07-04T06:44:26;27.34;42.78
65419;DHT22;52027;50.658;14.004;2022-07-04T06:46:52;27.33;42.90
65419;DHT22;52027;50.658;14.004;2022-07-04T06:49:18;27.33;42.88
65419;DHT22;52027;50.658;14.004;2022-07-04T06:51:44;27.31;42.73
65419;DHT22;52027;50.658;14.004;2022-07-04T06:54:09;27.35;42.65
65419;DHT22;52027;50.658;14.004;2022-07-04T06:56:34;27.37;42.64
65419;DHT22;52027;50.658;14.004;2022-07-04T06:59:00;27.39;42.57
65419;DHT22;52027;50.658;14.004;2022-07-04T07:01:25;27.44;42.47
65419;DHT22;52027;50.658;14.004;2022-07-04T07:03:50;27.44;42.25
65419;DHT22;52027;50.658;14.004;2022-07-04T07:06:16;27.46;41.98
65419;DHT22;52027;50.658;14.004;2022-07-04T07:08:41;27.41;42.16
65419;DHT22;52027;50.658;14.004;2022-07-04T07:11:07;27.45;41.97
65419;DHT22;52027;50.658;14.004;2022-07-04T07:13:42;27.46;41.97
65419;DHT22;52027;50.658;14.004;2022-07-04T07:16:08;27.48;41.97
65419;DHT22;52027;50.658;14.004;2022-07-04T07:18:34;27.54;42.01
65419;DHT22;52027;50.658;14.004;2022-07-04T07:20:59;27.58;41.96
65419;DHT22;52027;50.658;14.004;2022-07-04T07:23:25;27.58;41.91
65419;DHT22;52027;50.658;14.004;2022-07-04T07:25:50;27.59;42.16
65419;DHT22;52027;50.658;14.004;2022-07-04T07:28:15;27.59;42.37
65419;DHT22;52027;50.658;14.004;2022-07-04T07:30:41;27.54;42.64
65419;DHT22;52027;50.658;14.004;2022-07-04T07:33:06;27.54;42.69
65419;DHT22;52027;50.658;14.004;2022-07-04T07:35:31;27.49;42.67
65419;DHT22;52027;50.658;14.004;2022-07-04T07:37:57;27.46;42.84
65419;DHT22;52027;50.658;14.004;2022-07-04T07:40:22;27.45;42.72
65419;DHT22;52027;50.658;14.004;2022-07-04T07:42:48;27.44;42.77
65419;DHT22;52027;50.658;14.004;2022-07-04T07:45:13;27.46;42.67
65419;DHT22;52027;50.658;14.004;2022-07-04T07:47:38;27.44;42.71
65419;DHT22;52027;50.658;14.004;2022-07-04T07:50:05;27.46;42.77
65419;DHT22;52027;50.658;14.004;2022-07-04T07:52:30;27.58;42.43
65419;DHT22;52027;50.658;14.004;2022-07-04T07:54:56;27.56;42.54
65419;DHT22;52027;50.658;14.004;2022-07-04T07:57:21;27.54;42.66
65419;DHT22;52027;50.658;14.004;2022-07-04T07:59:46;27.54;42.41
65419;DHT22;52027;50.658;14.004;2022-07-04T08:02:12;27.52;42.45
65419;DHT22;52027;50.658;14.004;2022-07-04T08:04:37;27.52;42.36
65419;DHT22;52027;50.658;14.004;2022-07-04T08:07:08;27.54;42.25
65419;DHT22;52027;50.658;14.004;2022-07-04T08:09:34;27.59;41.98
65419;DHT22;52027;50.658;14.004;2022-07-04T08:12:01;27.63;41.70
65419;DHT22;52027;50.658;14.004;2022-07-04T08:14:27;27.67;41.52
65419;DHT22;52027;50.658;14.004;2022-07-04T08:16:53;27.69;41.45
65419;DHT22;52027;50.658;14.004;2022-07-04T08:19:18;27.72;41.30
65419;DHT22;52027;50.658;14.004;2022-07-04T08:21:43;27.74;41.28
65419;DHT22;52027;50.658;14.004;2022-07-04T08:24:12;27.78;41.32
65419;DHT22;52027;50.658;14.004;2022-07-04T08:26:37;27.86;41.26
65419;DHT22;52027;50.658;14.004;2022-07-04T08:29:02;27.92;41.20
65419;DHT22;52027;50.658;14.004;2022-07-04T08:31:28;27.96;41.04
65419;DHT22;52027;50.658;14.004;2022-07-04T08:33:53;28.00;40.70
65419;DHT22;52027;50.658;14.004;2022-07-04T08:36:19;28.06;40.56
65419;DHT22;52027;50.658;14.004;2022-07-04T08:38:44;28.10;40.43
65419;DHT22;52027;50.658;14.004;2022-07-04T08:41:12;28.11;40.34
65419;DHT22;52027;50.658;14.004;2022-07-04T08:43:37;28.17;40.40
65419;DHT22;52027;50.658;14.004;2022-07-04T08:46:05;28.22;40.07
65419;DHT22;52027;50.658;14.004;2022-07-04T08:48:31;28.16;40.48
65419;DHT22;52027;50.658;14.004;2022-07-04T08:51:11;28.22;40.69
65419;DHT22;52027;50.658;14.004;2022-07-04T08:53:38;28.30;40.38
65419;DHT22;52027;50.658;14.004;2022-07-04T08:56:05;28.40;40.46
65419;DHT22;52027;50.658;14.004;2022-07-04T08:58:50;28.40;40.43
65419;DHT22;52027;50.658;14.004;2022-07-04T09:01:16;28.41;40.36
65419;DHT22;52027;50.658;14.004;2022-07-04T09:03:44;28.48;40.31
65419;DHT22;52027;50.658;14.004;2022-07-04T09:06:10;28.49;40.23
65419;DHT22;52027;50.658;14.004;2022-07-04T09:08:37;28.54;40.06
65419;DHT22;52027;50.658;14.004;2022-07-04T09:11:03;28.57;39.99
65419;DHT22;52027;50.658;14.004;2022-07-04T09:13:30;28.61;40.06
65419;DHT22;52027;50.658;14.004;2022-07-04T09:15:55;28.55;40.03
65419;DHT22;52027;50.658;14.004;2022-07-04T09:21:05;28.61;39.87
65419;DHT22;52027;50.658;14.004;2022-07-04T09:23:38;28.58;39.97
65419;DHT22;52027;50.658;14.004;2022-07-04T09:28:36;28.61;40.01
65419;DHT22;52027;50.658;14.004;2022-07-04T09:31:02;28.64;39.79
65419;DHT22;52027;50.658;14.004;2022-07-04T09:33:47;28.69;39.88
65419;DHT22;52027;50.658;14.004;2022-07-04T09:36:15;28.68;39.88
65419;DHT22;52027;50.658;14.004;2022-07-04T09:38:41;28.72;39.90
65419;DHT22;52027;50.658;14.004;2022-07-04T09:41:07;28.72;40.18
65419;DHT22;52027;50.658;14.004;2022-07-04T09:44:03;28.78;40.10
65419;DHT22;52027;50.658;14.004;2022-07-04T09:46:29;28.83;40.25
65419;DHT22;52027;50.658;14.004;2022-07-04T09:48:55;28.85;39.91
65419;DHT22;52027;50.658;14.004;2022-07-04T09:51:52;28.92;39.75
65419;DHT22;52027;50.658;14.004;2022-07-04T09:54:27;28.91;40.05
65419;DHT22;52027;50.658;14.004;2022-07-04T09:56:58;28.96;40.23
65419;DHT22;52027;50.658;14.004;2022-07-04T09:59:25;28.96;40.30
65419;DHT22;52027;50.658;14.004;2022-07-04T10:02:06;28.98;40.31
65419;DHT22;52027;50.658;14.004;2022-07-04T10:04:52;29.03;40.48
65419;DHT22;52027;50.658;14.004;2022-07-04T10:07:31;29.04;40.26
65419;DHT22;52027;50.658;14.004;2022-07-04T10:09:57;29.02;40.25
65419;DHT22;52027;50.658;14.004;2022-07-04T10:12:27;29.03;40.39
65419;DHT22;52027;50.658;14.004;2022-07-04T10:14:54;29.09;40.32
65419;DHT22;52027;50.658;14.004;2022-07-04T10:17:21;29.09;40.13
65419;DHT22;52027;50.658;14.004;2022-07-04T10:19:46;29.19;40.18
65419;DHT22;52027;50.658;14.004;2022-07-04T10:22:12;29.17;39.83
65419;DHT22;52027;50.658;14.004;2022-07-04T10:24:38;29.17;39.98
65419;DHT22;52027;50.658;14.004;2022-07-04T10:27:04;29.23;40.01
65419;DHT22;52027;50.658;14.004;2022-07-04T10:29:30;29.26;39.91
65419;DHT22;52027;50.658;14.004;2022-07-04T10:31:56;29.24;39.63
65419;DHT22;52027;50.658;14.004;2022-07-04T10:34:21;29.24;39.81
65419;DHT22;52027;50.658;14.004;2022-07-04T10:36:53;29.23;39.76
65419;DHT22;52027;50.658;14.004;2022-07-04T10:39:22;29.22;39.89
65419;DHT22;52027;50.658;14.004;2022-07-04T10:41:57;29.23;40.09
65419;DHT22;52027;50.658;14.004;2022-07-04T10:44:27;29.29;39.91
65419;DHT22;52027;50.658;14.004;2022-07-04T10:46:59;29.27;39.82
65419;DHT22;52027;50.658;14.004;2022-07-04T10:49:27;29.27;39.57
65419;DHT22;52027;50.658;14.004;2022-07-04T10:56:57;29.30;39.96
65419;DHT22;52027;50.658;14.004;2022-07-04T10:59:31;29.34;39.85
65419;DHT22;52027;50.658;14.004;2022-07-04T11:04:58;29.38;39.86
65419;DHT22;52027;50.658;14.004;2022-07-04T11:17:54;29.57;39.60
65419;DHT22;52027;50.658;14.004;2022-07-04T11:20:20;29.57;39.54
65419;DHT22;52027;50.658;14.004;2022-07-04T11:22:45;29.61;39.50
65419;DHT22;52027;50.658;14.004;2022-07-04T11:25:12;29.57;39.70
65419;DHT22;52027;50.658;14.004;2022-07-04T11:27:40;29.60;39.63
65419;DHT22;52027;50.658;14.004;2022-07-04T11:30:07;29.61;39.61
65419;DHT22;52027;50.658;14.004;2022-07-04T11:32:34;29.62;39.71
65419;DHT22;52027;50.658;14.004;2022-07-04T11:35:01;29.58;39.68
65419;DHT22;52027;50.658;14.004;2022-07-04T11:37:26;29.62;39.87
65419;DHT22;52027;50.658;14.004;2022-07-04T11:39:53;29.62;39.94
65419;DHT22;52027;50.658;14.004;2022-07-04T11:42:39;29.68;39.84
65419;DHT22;52027;50.658;14.004;2022-07-04T11:45:23;29.68;39.90
65419;DHT22;52027;50.658;14.004;2022-07-04T11:47:48;29.67;39.99
65419;DHT22;52027;50.658;14.004;2022-07-04T11:50:15;29.67;40.18
65419;DHT22;52027;50.658;14.004;2022-07-04T11:52:49;29.69;40.19
65419;DHT22;52027;50.658;14.004;2022-07-04T11:55:19;29.68;40.36
65419;DHT22;52027;50.658;14.004;2022-07-04T11:57:49;29.69;40.33
65419;DHT22;52027;50.658;14.004;2022-07-04T12:00:22;29.71;40.30
65419;DHT22;52027;50.658;14.004;2022-07-04T12:02:50;29.72;40.51
65419;DHT22;52027;50.658;14.004;2022-07-04T12:05:16;29.71;40.23
65419;DHT22;52027;50.658;14.004;2022-07-04T12:07:47;29.74;40.35
65419;DHT22;52027;50.658;14.004;2022-07-04T12:10:18;29.72;40.40
65419;DHT22;52027;50.658;14.004;2022-07-04T12:12:54;29.79;40.51
65419;DHT22;52027;50.658;14.004;2022-07-04T12:15:21;29.77;40.21
65419;DHT22;52027;50.658;14.004;2022-07-04T12:17:54;29.81;40.18
65419;DHT22;52027;50.658;14.004;2022-07-04T12:20:21;29.85;40.11
65419;DHT22;52027;50.658;14.004;2022-07-04T12:22:55;29.85;40.03
65419;DHT22;52027;50.658;14.004;2022-07-04T12:25:24;29.84;40.15
65419;DHT22;52027;50.658;14.004;2022-07-04T12:30:22;29.86;40.00
65419;DHT22;52027;50.658;14.004;2022-07-04T12:32:50;29.86;39.80
65419;DHT22;52027;50.658;14.004;2022-07-04T12:35:40;29.88;40.07
65419;DHT22;52027;50.658;14.004;2022-07-04T12:38:12;29.86;40.21
65419;DHT22;52027;50.658;14.004;2022-07-04T12:40:50;29.84;40.46
65419;DHT22;52027;50.658;14.004;2022-07-04T12:43:16;29.84;40.65
65419;DHT22;52027;50.658;14.004;2022-07-04T12:45:44;29.78;40.74
65419;DHT22;52027;50.658;14.004;2022-07-04T12:48:23;29.79;40.95
65419;DHT22;52027;50.658;14.004;2022-07-04T12:50:50;29.78;41.38
65419;DHT22;52027;50.658;14.004;2022-07-04T12:53:16;29.81;41.37
65419;DHT22;52027;50.658;14.004;2022-07-04T12:55:43;29.81;41.05
65419;DHT22;52027;50.658;14.004;2022-07-04T12:58:09;29.79;40.88
65419;DHT22;52027;50.658;14.004;2022-07-04T13:03:57;29.74;40.72
65419;DHT22;52027;50.658;14.004;2022-07-04T13:06:22;29.72;40.76
65419;DHT22;52027;50.658;14.004;2022-07-04T13:08:48;29.72;40.72
65419;DHT22;52027;50.658;14.004;2022-07-04T13:11:14;29.68;40.78
65419;DHT22;52027;50.658;14.004;2022-07-04T13:13:58;29.69;41.00
65419;DHT22;52027;50.658;14.004;2022-07-04T13:16:23;29.69;41.31
65419;DHT22;52027;50.658;14.004;2022-07-04T13:18:49;29.67;41.92
65419;DHT22;52027;50.658;14.004;2022-07-04T13:21:14;29.69;42.15
65419;DHT22;52027;50.658;14.004;2022-07-04T13:23:39;29.67;42.56
65419;DHT22;52027;50.658;14.004;2022-07-04T13:26:05;29.68;43.13
65419;DHT22;52027;50.658;14.004;2022-07-04T13:28:30;29.67;43.42
65419;DHT22;52027;50.658;14.004;2022-07-04T13:30:56;29.71;43.88
65419;DHT22;52027;50.658;14.004;2022-07-04T13:33:21;29.71;43.34
65419;DHT22;52027;50.658;14.004;2022-07-04T13:35:47;29.67;43.36
65419;DHT22;52027;50.658;14.004;2022-07-04T13:38:12;29.65;43.29
65419;DHT22;52027;50.658;14.004;2022-07-04T13:40:41;29.68;43.33
65419;DHT22;52027;50.658;14.004;2022-07-04T13:43:07;29.67;43.40
65419;DHT22;52027;50.658;14.004;2022-07-04T13:45:35;29.68;43.50
65419;DHT22;52027;50.658;14.004;2022-07-04T13:48:01;29.72;43.58
65419;DHT22;52027;50.658;14.004;2022-07-04T13:50:26;29.74;43.64
65419;DHT22;52027;50.658;14.004;2022-07-04T13:52:51;29.69;43.55
65419;DHT22;52027;50.658;14.004;2022-07-04T13:55:17;29.67;43.59
65419;DHT22;52027;50.658;14.004;2022-07-04T13:57:42;29.65;43.69
65419;DHT22;52027;50.658;14.004;2022-07-04T14:00:08;29.64;43.86
65419;DHT22;52027;50.658;14.004;2022-07-04T14:02:34;29.62;43.93
65419;DHT22;52027;50.658;14.004;2022-07-04T14:05:00;29.64;44.00
65419;DHT22;52027;50.658;14.004;2022-07-04T14:07:25;29.62;44.12
65419;DHT22;52027;50.658;14.004;2022-07-04T14:09:51;29.60;44.22
65419;DHT22;52027;50.658;14.004;2022-07-04T14:12:16;29.60;44.34
65419;DHT22;52027;50.658;14.004;2022-07-04T14:14:42;29.64;44.28
65419;DHT22;52027;50.658;14.004;2022-07-04T14:17:08;29.64;44.09
65419;DHT22;52027;50.658;14.004;2022-07-04T14:19:33;29.69;44.03
65419;DHT22;52027;50.658;14.004;2022-07-04T14:21:59;29.71;43.98
65419;DHT22;52027;50.658;14.004;2022-07-04T14:24:24;29.72;43.77
65419;DHT22;52027;50.658;14.004;2022-07-04T14:26:51;29.74;43.64
65419;DHT22;52027;50.658;14.004;2022-07-04T14:29:17;29.74;43.67
65419;DHT22;52027;50.658;14.004;2022-07-04T14:31:43;29.77;43.70
65419;DHT22;52027;50.658;14.004;2022-07-04T14:34:08;29.77;43.73
65419;DHT22;52027;50.658;14.004;2022-07-04T14:36:36;29.77;43.85
65419;DHT22;52027;50.658;14.004;2022-07-04T14:39:02;29.81;44.03
65419;DHT22;52027;50.658;14.004;2022-07-04T14:41:28;29.77;44.18
65419;DHT22;52027;50.658;14.004;2022-07-04T14:43:53;29.78;44.11
65419;DHT22;52027;50.658;14.004;2022-07-04T14:46:19;29.79;44.11
65419;DHT22;52027;50.658;14.004;2022-07-04T14:48:45;29.82;44.22
65419;DHT22;52027;50.658;14.004;2022-07-04T14:51:10;29.82;44.24
65419;DHT22;52027;50.658;14.004;2022-07-04T14:53:36;29.81;44.17
65419;DHT22;52027;50.658;14.004;2022-07-04T14:56:01;29.81;44.23
65419;DHT22;52027;50.658;14.004;2022-07-04T14:58:26;29.81;44.34
65419;DHT22;52027;50.658;14.004;2022-07-04T15:00:52;29.81;44.28
65419;DHT22;52027;50.658;14.004;2022-07-04T15:03:17;29.81;44.24
65419;DHT22;52027;50.658;14.004;2022-07-04T15:05:42;29.82;44.25
65419;DHT22;52027;50.658;14.004;2022-07-04T15:08:08;29.79;44.29
65419;DHT22;52027;50.658;14.004;2022-07-04T15:10:34;29.82;44.11
65419;DHT22;52027;50.658;14.004;2022-07-04T15:12:59;29.82;44.06
65419;DHT22;52027;50.658;14.004;2022-07-04T15:15:24;29.84;44.13
65419;DHT22;52027;50.658;14.004;2022-07-04T15:17:52;29.86;44.20
65419;DHT22;52027;50.658;14.004;2022-07-04T15:20:18;29.88;44.19
65419;DHT22;52027;50.658;14.004;2022-07-04T15:23:02;29.86;44.18
65419;DHT22;52027;50.658;14.004;2022-07-04T15:25:46;29.90;44.15
65419;DHT22;52027;50.658;14.004;2022-07-04T15:28:11;29.92;44.06
65419;DHT22;52027;50.658;14.004;2022-07-04T15:30:37;29.93;44.05
65419;DHT22;52027;50.658;14.004;2022-07-04T15:33:02;29.95;44.08
65419;DHT22;52027;50.658;14.004;2022-07-04T15:35:27;29.96;44.22
65419;DHT22;52027;50.658;14.004;2022-07-04T15:37:53;30.01;44.23
65419;DHT22;52027;50.658;14.004;2022-07-04T15:40:18;30.01;44.34
65419;DHT22;52027;50.658;14.004;2022-07-04T15:42:44;29.98;44.33